sensor_id;sensor_type;location;lat;lon;timestamp;P1;durP1;ratioP1;P2;durP2;ratioP2
64832;SDS011;51290;45.060;38.948;2023-04-24T00:00:55;2.53;;;1.83;;
64832;SDS011;51290;45.060;38.948;2023-04-24T00:03:22;2.45;;;2.05;;
64832;SDS011;51290;45.060;38.948;2023-04-24T00:05:49;2.42;;;1.75;;
64832;SDS011;51290;45.060;38.948;2023-04-24T00:08:16;2.08;;;1.88;;
64832;SDS011;51290;45.060;38.948;2023-04-24T00:10:42;3.33;;;2.38;;
64832;SDS011;51290;45.060;38.948;2023-04-24T00:13:09;3.25;;;2.00;;
64832;SDS011;51290;45.060;38.948;2023-04-24T00:15:35;1.95;;;1.60;;
64832;SDS011;51290;45.060;38.948;2023-04-24T00:18:01;2.80;;;2.15;;
64832;SDS011;51290;45.060;38.948;2023-04-24T00:20:27;2.78;;;2.10;;
64832;SDS011;51290;45.060;38.948;2023-04-24T00:22:54;4.82;;;2.10;;
64832;SDS011;51290;45.060;38.948;2023-04-24T00:25:21;6.05;;;2.10;;
64832;SDS011;51290;45.060;38.948;2023-04-24T00:27:47;2.38;;;2.20;;
64832;SDS011;51290;45.060;38.948;2023-04-24T00:30:13;2.95;;;2.15;;
64832;SDS011;51290;45.060;38.948;2023-04-24T00:32:39;3.30;;;2.72;;
64832;SDS011;51290;45.060;38.948;2023-04-24T00:35:05;3.25;;;2.42;;
64832;SDS011;51290;45.060;38.948;2023-04-24T00:37:31;2.78;;;1.75;;
64832;SDS011;51290;45.060;38.948;2023-04-24T00:39:57;5.82;;;2.63;;
64832;SDS011;51290;45.060;38.948;2023-04-24T00:42:23;2.53;;;2.33;;
64832;SDS011;51290;45.060;38.948;2023-04-24T00:44:50;2.65;;;1.65;;
64832;SDS011;51290;45.060;38.948;2023-04-24T00:47:16;3.25;;;2.50;;
64832;SDS011;51290;45.060;38.948;2023-04-24T00:49:45;3.92;;;2.17;;
64832;SDS011;51290;45.060;38.948;2023-04-24T00:52:10;4.32;;;2.45;;
64832;SDS011;51290;45.060;38.948;2023-04-24T00:54:37;2.47;;;2.28;;
64832;SDS011;51290;45.060;38.948;2023-04-24T00:57:03;2.70;;;2.33;;
64832;SDS011;51290;45.060;38.948;2023-04-24T00:59:29;5.80;;;2.88;;
64832;SDS011;51290;45.060;38.948;2023-04-24T01:01:56;7.70;;;3.67;;
64832;SDS011;51290;45.060;38.948;2023-04-24T01:04:22;4.45;;;2.15;;
64832;SDS011;51290;45.060;38.948;2023-04-24T01:06:49;3.53;;;2.55;;
64832;SDS011;51290;45.060;38.948;2023-04-24T01:09:16;3.45;;;2.25;;
64832;SDS011;51290;45.060;38.948;2023-04-24T01:11:43;7.90;;;2.13;;
64832;SDS011;51290;45.060;38.948;2023-04-24T01:14:11;3.70;;;2.25;;
64832;SDS011;51290;45.060;38.948;2023-04-24T01:16:37;3.30;;;2.53;;
64832;SDS011;51290;45.060;38.948;2023-04-24T01:19:03;4.30;;;3.13;;
64832;SDS011;51290;45.060;38.948;2023-04-24T01:21:31;1.67;;;1.38;;
64832;SDS011;51290;45.060;38.948;2023-04-24T01:24:02;3.38;;;2.33;;
64832;SDS011;51290;45.060;38.948;2023-04-24T01:26:28;2.60;;;1.90;;
64832;SDS011;51290;45.060;38.948;2023-04-24T01:28:54;2.67;;;1.98;;
64832;SDS011;51290;45.060;38.948;2023-04-24T01:31:21;2.80;;;2.15;;
64832;SDS011;51290;45.060;38.948;2023-04-24T01:33:47;4.40;;;2.33;;
64832;SDS011;51290;45.060;38.948;2023-04-24T01:36:14;4.10;;;2.85;;
64832;SDS011;51290;45.060;38.948;2023-04-24T01:38:42;11.90;;;2.38;;
64832;SDS011;51290;45.060;38.948;2023-04-24T01:41:09;2.15;;;1.77;;
64832;SDS011;51290;45.060;38.948;2023-04-24T01:43:36;4.40;;;2.33;;
64832;SDS011;51290;45.060;38.948;2023-04-24T01:46:02;3.58;;;2.92;;
64832;SDS011;51290;45.060;38.948;2023-04-24T01:48:28;3.85;;;2.55;;
64832;SDS011;51290;45.060;38.948;2023-04-24T01:50:56;3.83;;;2.50;;
64832;SDS011;51290;45.060;38.948;2023-04-24T01:53:22;3.85;;;2.58;;
64832;SDS011;51290;45.060;38.948;2023-04-24T01:55:48;2.13;;;1.60;;
64832;SDS011;51290;45.060;38.948;2023-04-24T01:58:14;2.50;;;2.28;;
64832;SDS011;51290;45.060;38.948;2023-04-24T02:00:40;4.13;;;2.90;;
64832;SDS011;51290;45.060;38.948;2023-04-24T02:03:06;2.53;;;1.90;;
64832;SDS011;51290;45.060;38.948;2023-04-24T02:05:32;3.33;;;2.55;;
64832;SDS011;51290;45.060;38.948;2023-04-24T02:07:58;3.05;;;2.20;;
64832;SDS011;51290;45.060;38.948;2023-04-24T02:10:25;3.05;;;2.50;;
64832;SDS011;51290;45.060;38.948;2023-04-24T02:12:50;3.95;;;2.58;;
64832;SDS011;51290;45.060;38.948;2023-04-24T02:15:16;1.70;;;1.55;;
64832;SDS011;51290;45.060;38.948;2023-04-24T02:17:43;3.35;;;2.22;;
64832;SDS011;51290;45.060;38.948;2023-04-24T02:20:09;3.47;;;2.80;;
64832;SDS011;51290;45.060;38.948;2023-04-24T02:22:37;5.15;;;2.83;;
64832;SDS011;51290;45.060;38.948;2023-04-24T02:25:03;5.82;;;3.20;;
64832;SDS011;51290;45.060;38.948;2023-04-24T02:27:30;4.45;;;2.72;;
64832;SDS011;51290;45.060;38.948;2023-04-24T02:29:56;7.13;;;3.67;;
64832;SDS011;51290;45.060;38.948;2023-04-24T02:32:22;2.15;;;1.77;;
64832;SDS011;51290;45.060;38.948;2023-04-24T02:34:48;5.13;;;2.97;;
64832;SDS011;51290;45.060;38.948;2023-04-24T02:37:14;4.82;;;2.38;;
64832;SDS011;51290;45.060;38.948;2023-04-24T02:39:40;5.25;;;3.47;;
64832;SDS011;51290;45.060;38.948;2023-04-24T02:42:06;8.70;;;2.70;;
64832;SDS011;51290;45.060;38.948;2023-04-24T02:44:34;5.53;;;3.00;;
64832;SDS011;51290;45.060;38.948;2023-04-24T02:47:00;3.17;;;2.47;;
64832;SDS011;51290;45.060;38.948;2023-04-24T02:49:26;3.63;;;2.75;;
64832;SDS011;51290;45.060;38.948;2023-04-24T02:51:53;3.58;;;2.65;;
64832;SDS011;51290;45.060;38.948;2023-04-24T02:54:19;4.28;;;2.60;;
64832;SDS011;51290;45.060;38.948;2023-04-24T02:56:45;2.47;;;2.22;;
64832;SDS011;51290;45.060;38.948;2023-04-24T02:59:11;4.13;;;2.70;;
64832;SDS011;51290;45.060;38.948;2023-04-24T03:01:37;4.38;;;2.75;;
64832;SDS011;51290;45.060;38.948;2023-04-24T03:04:03;4.35;;;2.85;;
64832;SDS011;51290;45.060;38.948;2023-04-24T03:06:29;3.97;;;2.90;;
64832;SDS011;51290;45.060;38.948;2023-04-24T03:08:56;5.93;;;3.22;;
64832;SDS011;51290;45.060;38.948;2023-04-24T03:11:22;5.43;;;2.97;;
64832;SDS011;51290;45.060;38.948;2023-04-24T03:13:48;4.47;;;3.08;;
64832;SDS011;51290;45.060;38.948;2023-04-24T03:16:14;3.40;;;2.53;;
64832;SDS011;51290;45.060;38.948;2023-04-24T03:18:40;4.50;;;3.20;;
64832;SDS011;51290;45.060;38.948;2023-04-24T03:21:07;4.63;;;2.90;;
64832;SDS011;51290;45.060;38.948;2023-04-24T03:23:34;4.55;;;2.70;;
64832;SDS011;51290;45.060;38.948;2023-04-24T03:25:59;5.47;;;2.85;;
64832;SDS011;51290;45.060;38.948;2023-04-24T03:28:26;4.85;;;3.47;;
64832;SDS011;51290;45.060;38.948;2023-04-24T03:31:02;4.32;;;2.00;;
64832;SDS011;51290;45.060;38.948;2023-04-24T03:33:32;7.18;;;3.40;;
64832;SDS011;51290;45.060;38.948;2023-04-24T03:36:00;7.50;;;2.42;;
64832;SDS011;51290;45.060;38.948;2023-04-24T03:38:33;3.20;;;2.58;;
64832;SDS011;51290;45.060;38.948;2023-04-24T03:41:06;4.68;;;3.40;;
64832;SDS011;51290;45.060;38.948;2023-04-24T03:43:52;5.85;;;2.47;;
64832;SDS011;51290;45.060;38.948;2023-04-24T03:46:18;3.72;;;2.67;;
64832;SDS011;51290;45.060;38.948;2023-04-24T03:48:51;4.45;;;3.10;;
64832;SDS011;51290;45.060;38.948;2023-04-24T03:51:21;3.78;;;2.97;;
64832;SDS011;51290;45.060;38.948;2023-04-24T03:53:51;3.13;;;2.22;;
64832;SDS011;51290;45.060;38.948;2023-04-24T03:56:20;4.60;;;2.90;;
64832;SDS011;51290;45.060;38.948;2023-04-24T03:58:46;3.75;;;2.75;;
64832;SDS011;51290;45.060;38.948;2023-04-24T04:01:12;3.38;;;2.58;;
64832;SDS011;51290;45.060;38.948;2023-04-24T04:03:56;3.88;;;2.83;;
64832;SDS011;51290;45.060;38.948;2023-04-24T04:06:24;3.88;;;2.53;;
64832;SDS011;51290;45.060;38.948;2023-04-24T04:08:52;5.68;;;3.22;;
64832;SDS011;51290;45.060;38.948;2023-04-24T04:11:18;6.43;;;3.55;;
64832;SDS011;51290;45.060;38.948;2023-04-24T04:13:45;4.57;;;2.83;;
64832;SDS011;51290;45.060;38.948;2023-04-24T04:16:15;6.25;;;3.50;;
64832;SDS011;51290;45.060;38.948;2023-04-24T04:18:48;5.97;;;3.22;;
64832;SDS011;51290;45.060;38.948;2023-04-24T04:21:14;5.88;;;3.95;;
64832;SDS011;51290;45.060;38.948;2023-04-24T04:23:41;7.10;;;3.22;;
64832;SDS011;51290;45.060;38.948;2023-04-24T04:26:13;4.75;;;3.20;;
64832;SDS011;51290;45.060;38.948;2023-04-24T04:29:05;8.25;;;4.03;;
64832;SDS011;51290;45.060;38.948;2023-04-24T04:31:34;5.78;;;3.33;;
64832;SDS011;51290;45.060;38.948;2023-04-24T04:34:06;6.47;;;3.30;;
64832;SDS011;51290;45.060;38.948;2023-04-24T04:36:33;11.27;;;3.42;;
64832;SDS011;51290;45.060;38.948;2023-04-24T04:39:14;7.63;;;3.17;;
64832;SDS011;51290;45.060;38.948;2023-04-24T04:41:58;7.15;;;3.53;;
64832;SDS011;51290;45.060;38.948;2023-04-24T04:44:31;7.70;;;3.80;;
64832;SDS011;51290;45.060;38.948;2023-04-24T04:46:59;7.68;;;3.40;;
64832;SDS011;51290;45.060;38.948;2023-04-24T04:49:29;10.82;;;3.90;;
64832;SDS011;51290;45.060;38.948;2023-04-24T04:51:56;4.90;;;2.90;;
64832;SDS011;51290;45.060;38.948;2023-04-24T04:54:25;9.55;;;3.40;;
64832;SDS011;51290;45.060;38.948;2023-04-24T04:56:50;5.45;;;3.38;;
64832;SDS011;51290;45.060;38.948;2023-04-24T04:59:17;6.78;;;3.38;;
64832;SDS011;51290;45.060;38.948;2023-04-24T05:01:43;5.03;;;3.55;;
64832;SDS011;51290;45.060;38.948;2023-04-24T05:04:11;5.32;;;3.70;;
64832;SDS011;51290;45.060;38.948;2023-04-24T05:06:37;7.32;;;4.28;;
64832;SDS011;51290;45.060;38.948;2023-04-24T05:09:05;6.07;;;3.75;;
64832;SDS011;51290;45.060;38.948;2023-04-24T05:11:47;7.55;;;3.58;;
64832;SDS011;51290;45.060;38.948;2023-04-24T05:14:14;4.25;;;3.20;;
64832;SDS011;51290;45.060;38.948;2023-04-24T05:16:41;13.77;;;4.07;;
64832;SDS011;51290;45.060;38.948;2023-04-24T05:19:09;7.90;;;2.75;;
64832;SDS011;51290;45.060;38.948;2023-04-24T05:21:39;4.28;;;2.67;;
64832;SDS011;51290;45.060;38.948;2023-04-24T05:24:06;4.55;;;3.28;;
64832;SDS011;51290;45.060;38.948;2023-04-24T05:26:45;8.30;;;3.90;;
64832;SDS011;51290;45.060;38.948;2023-04-24T05:29:14;6.45;;;3.75;;
64832;SDS011;51290;45.060;38.948;2023-04-24T05:31:41;5.60;;;3.25;;
64832;SDS011;51290;45.060;38.948;2023-04-24T05:34:07;5.13;;;3.15;;
64832;SDS011;51290;45.060;38.948;2023-04-24T05:36:38;8.55;;;3.95;;
64832;SDS011;51290;45.060;38.948;2023-04-24T05:39:04;6.30;;;3.05;;
64832;SDS011;51290;45.060;38.948;2023-04-24T05:41:30;6.93;;;3.67;;
64832;SDS011;51290;45.060;38.948;2023-04-24T05:43:56;7.95;;;3.42;;
64832;SDS011;51290;45.060;38.948;2023-04-24T05:46:22;5.72;;;3.58;;
64832;SDS011;51290;45.060;38.948;2023-04-24T05:48:49;7.40;;;3.88;;
64832;SDS011;51290;45.060;38.948;2023-04-24T05:51:15;5.18;;;2.80;;
64832;SDS011;51290;45.060;38.948;2023-04-24T05:53:41;7.22;;;3.03;;
64832;SDS011;51290;45.060;38.948;2023-04-24T05:56:08;7.10;;;3.88;;
64832;SDS011;51290;45.060;38.948;2023-04-24T05:58:35;4.30;;;2.92;;
64832;SDS011;51290;45.060;38.948;2023-04-24T06:01:01;7.60;;;3.08;;
64832;SDS011;51290;45.060;38.948;2023-04-24T06:03:28;6.22;;;3.40;;
64832;SDS011;51290;45.060;38.948;2023-04-24T06:05:54;9.52;;;4.00;;
64832;SDS011;51290;45.060;38.948;2023-04-24T06:08:21;4.40;;;3.00;;
64832;SDS011;51290;45.060;38.948;2023-04-24T06:10:48;5.38;;;3.58;;
64832;SDS011;51290;45.060;38.948;2023-04-24T06:13:17;5.43;;;3.42;;
64832;SDS011;51290;45.060;38.948;2023-04-24T06:15:59;6.60;;;4.22;;
64832;SDS011;51290;45.060;38.948;2023-04-24T06:18:32;4.88;;;3.08;;
64832;SDS011;51290;45.060;38.948;2023-04-24T06:20:58;7.78;;;4.05;;
64832;SDS011;51290;45.060;38.948;2023-04-24T06:23:24;10.13;;;3.35;;
64832;SDS011;51290;45.060;38.948;2023-04-24T06:25:50;6.28;;;3.80;;
64832;SDS011;51290;45.060;38.948;2023-04-24T06:28:16;7.05;;;4.07;;
64832;SDS011;51290;45.060;38.948;2023-04-24T06:30:42;8.10;;;3.28;;
64832;SDS011;51290;45.060;38.948;2023-04-24T06:33:08;6.80;;;3.15;;
64832;SDS011;51290;45.060;38.948;2023-04-24T06:35:35;6.97;;;3.78;;
64832;SDS011;51290;45.060;38.948;2023-04-24T06:38:03;8.45;;;4.00;;
64832;SDS011;51290;45.060;38.948;2023-04-24T06:40:29;8.95;;;4.47;;
64832;SDS011;51290;45.060;38.948;2023-04-24T06:42:55;6.68;;;3.85;;
64832;SDS011;51290;45.060;38.948;2023-04-24T06:45:23;7.40;;;4.30;;
64832;SDS011;51290;45.060;38.948;2023-04-24T06:47:49;5.70;;;3.85;;
64832;SDS011;51290;45.060;38.948;2023-04-24T06:50:14;13.05;;;6.18;;
64832;SDS011;51290;45.060;38.948;2023-04-24T06:52:40;6.32;;;3.90;;
64832;SDS011;51290;45.060;38.948;2023-04-24T06:55:07;7.82;;;4.38;;
64832;SDS011;51290;45.060;38.948;2023-04-24T06:57:33;12.68;;;4.53;;
64832;SDS011;51290;45.060;38.948;2023-04-24T06:59:59;6.18;;;3.88;;
64832;SDS011;51290;45.060;38.948;2023-04-24T07:02:26;6.70;;;4.55;;
64832;SDS011;51290;45.060;38.948;2023-04-24T07:04:52;9.90;;;4.78;;
64832;SDS011;51290;45.060;38.948;2023-04-24T07:07:18;7.45;;;4.40;;
64832;SDS011;51290;45.060;38.948;2023-04-24T07:09:44;8.10;;;4.25;;
64832;SDS011;51290;45.060;38.948;2023-04-24T07:12:11;9.73;;;4.50;;
64832;SDS011;51290;45.060;38.948;2023-04-24T07:14:37;10.38;;;4.97;;
64832;SDS011;51290;45.060;38.948;2023-04-24T07:17:04;6.70;;;4.13;;
64832;SDS011;51290;45.060;38.948;2023-04-24T07:19:32;9.88;;;3.92;;
64832;SDS011;51290;45.060;38.948;2023-04-24T07:22:00;8.68;;;3.90;;
64832;SDS011;51290;45.060;38.948;2023-04-24T07:24:27;5.97;;;3.80;;
64832;SDS011;51290;45.060;38.948;2023-04-24T07:26:53;5.03;;;3.42;;
64832;SDS011;51290;45.060;38.948;2023-04-24T07:29:20;9.63;;;4.25;;
64832;SDS011;51290;45.060;38.948;2023-04-24T07:31:46;6.47;;;3.85;;
64832;SDS011;51290;45.060;38.948;2023-04-24T07:34:12;8.18;;;4.45;;
64832;SDS011;51290;45.060;38.948;2023-04-24T07:36:38;12.02;;;4.85;;
64832;SDS011;51290;45.060;38.948;2023-04-24T07:39:06;5.53;;;3.20;;
64832;SDS011;51290;45.060;38.948;2023-04-24T07:41:32;7.90;;;4.45;;
64832;SDS011;51290;45.060;38.948;2023-04-24T07:43:58;4.97;;;2.97;;
64832;SDS011;51290;45.060;38.948;2023-04-24T07:46:24;5.78;;;3.15;;
64832;SDS011;51290;45.060;38.948;2023-04-24T07:48:50;6.65;;;3.42;;
64832;SDS011;51290;45.060;38.948;2023-04-24T07:51:16;7.50;;;3.50;;
64832;SDS011;51290;45.060;38.948;2023-04-24T07:53:42;7.75;;;3.13;;
64832;SDS011;51290;45.060;38.948;2023-04-24T07:56:09;6.55;;;3.50;;
64832;SDS011;51290;45.060;38.948;2023-04-24T07:58:35;5.68;;;3.92;;
64832;SDS011;51290;45.060;38.948;2023-04-24T08:01:01;7.18;;;3.72;;
64832;SDS011;51290;45.060;38.948;2023-04-24T08:03:27;9.90;;;3.85;;
64832;SDS011;51290;45.060;38.948;2023-04-24T08:05:53;7.47;;;3.78;;
64832;SDS011;51290;45.060;38.948;2023-04-24T08:08:20;7.00;;;3.72;;
64832;SDS011;51290;45.060;38.948;2023-04-24T08:10:47;8.30;;;4.60;;
64832;SDS011;51290;45.060;38.948;2023-04-24T08:13:13;5.85;;;3.60;;
64832;SDS011;51290;45.060;38.948;2023-04-24T08:15:39;5.47;;;3.33;;
64832;SDS011;51290;45.060;38.948;2023-04-24T08:18:05;5.40;;;2.97;;
64832;SDS011;51290;45.060;38.948;2023-04-24T08:20:32;5.90;;;3.58;;
64832;SDS011;51290;45.060;38.948;2023-04-24T08:22:58;7.60;;;4.00;;
64832;SDS011;51290;45.060;38.948;2023-04-24T08:25:23;6.03;;;3.47;;
64832;SDS011;51290;45.060;38.948;2023-04-24T08:27:50;7.43;;;3.80;;
64832;SDS011;51290;45.060;38.948;2023-04-24T08:30:17;8.45;;;4.82;;
64832;SDS011;51290;45.060;38.948;2023-04-24T08:32:43;6.68;;;4.22;;
64832;SDS011;51290;45.060;38.948;2023-04-24T08:35:09;9.18;;;4.55;;
64832;SDS011;51290;45.060;38.948;2023-04-24T08:37:35;9.68;;;5.15;;
64832;SDS011;51290;45.060;38.948;2023-04-24T08:40:26;10.98;;;6.30;;
64832;SDS011;51290;45.060;38.948;2023-04-24T08:42:53;12.90;;;5.68;;
64832;SDS011;51290;45.060;38.948;2023-04-24T08:45:23;8.30;;;5.05;;
64832;SDS011;51290;45.060;38.948;2023-04-24T08:47:52;14.80;;;4.78;;
64832;SDS011;51290;45.060;38.948;2023-04-24T08:50:19;7.90;;;4.47;;
64832;SDS011;51290;45.060;38.948;2023-04-24T08:52:46;9.05;;;5.15;;
64832;SDS011;51290;45.060;38.948;2023-04-24T08:55:14;7.20;;;4.22;;
64832;SDS011;51290;45.060;38.948;2023-04-24T08:57:44;6.88;;;4.50;;
64832;SDS011;51290;45.060;38.948;2023-04-24T09:00:11;10.95;;;5.38;;
64832;SDS011;51290;45.060;38.948;2023-04-24T09:02:39;7.18;;;4.90;;
64832;SDS011;51290;45.060;38.948;2023-04-24T09:05:08;7.00;;;4.85;;
64832;SDS011;51290;45.060;38.948;2023-04-24T09:07:35;7.38;;;4.63;;
64832;SDS011;51290;45.060;38.948;2023-04-24T09:10:04;7.38;;;4.45;;
64832;SDS011;51290;45.060;38.948;2023-04-24T09:12:30;10.00;;;5.65;;
64832;SDS011;51290;45.060;38.948;2023-04-24T09:14:56;10.75;;;6.03;;
64832;SDS011;51290;45.060;38.948;2023-04-24T09:17:23;9.98;;;5.80;;
64832;SDS011;51290;45.060;38.948;2023-04-24T09:19:52;9.98;;;5.88;;
64832;SDS011;51290;45.060;38.948;2023-04-24T09:22:18;11.65;;;4.93;;
64832;SDS011;51290;45.060;38.948;2023-04-24T09:24:44;11.77;;;5.32;;
64832;SDS011;51290;45.060;38.948;2023-04-24T09:27:11;9.35;;;5.28;;
64832;SDS011;51290;45.060;38.948;2023-04-24T09:29:54;14.70;;;5.70;;
64832;SDS011;51290;45.060;38.948;2023-04-24T09:32:21;10.15;;;5.90;;
64832;SDS011;51290;45.060;38.948;2023-04-24T09:35:04;10.82;;;5.10;;
64832;SDS011;51290;45.060;38.948;2023-04-24T09:37:35;9.90;;;5.90;;
64832;SDS011;51290;45.060;38.948;2023-04-24T09:40:11;12.60;;;6.07;;
64832;SDS011;51290;45.060;38.948;2023-04-24T09:42:39;9.38;;;5.18;;
64832;SDS011;51290;45.060;38.948;2023-04-24T09:45:09;10.93;;;6.47;;
64832;SDS011;51290;45.060;38.948;2023-04-24T09:47:40;11.30;;;7.35;;
64832;SDS011;51290;45.060;38.948;2023-04-24T09:50:09;8.52;;;5.35;;
64832;SDS011;51290;45.060;38.948;2023-04-24T09:52:39;9.85;;;5.53;;
64832;SDS011;51290;45.060;38.948;2023-04-24T09:55:27;10.10;;;5.75;;
64832;SDS011;51290;45.060;38.948;2023-04-24T10:00:27;10.68;;;5.30;;
64832;SDS011;51290;45.060;38.948;2023-04-24T10:02:58;11.90;;;5.60;;
64832;SDS011;51290;45.060;38.948;2023-04-24T10:07:59;9.05;;;6.32;;
64832;SDS011;51290;45.060;38.948;2023-04-24T10:10:28;9.85;;;5.70;;
64832;SDS011;51290;45.060;38.948;2023-04-24T10:12:56;10.23;;;5.90;;
64832;SDS011;51290;45.060;38.948;2023-04-24T10:15:22;9.10;;;5.15;;
64832;SDS011;51290;45.060;38.948;2023-04-24T10:17:49;10.10;;;5.95;;
64832;SDS011;51290;45.060;38.948;2023-04-24T10:20:19;9.45;;;5.20;;
64832;SDS011;51290;45.060;38.948;2023-04-24T10:22:50;15.40;;;8.35;;
64832;SDS011;51290;45.060;38.948;2023-04-24T10:25:18;6.45;;;4.40;;
64832;SDS011;51290;45.060;38.948;2023-04-24T10:27:46;8.80;;;5.07;;
64832;SDS011;51290;45.060;38.948;2023-04-24T10:30:13;12.63;;;6.35;;
64832;SDS011;51290;45.060;38.948;2023-04-24T10:32:39;9.85;;;5.32;;
64832;SDS011;51290;45.060;38.948;2023-04-24T10:35:06;10.13;;;5.65;;
64832;SDS011;51290;45.060;38.948;2023-04-24T10:38:16;8.82;;;5.22;;
64832;SDS011;51290;45.060;38.948;2023-04-24T10:40:34;10.57;;;5.40;;
64832;SDS011;51290;45.060;38.948;2023-04-24T10:43:08;8.45;;;4.97;;
64832;SDS011;51290;45.060;38.948;2023-04-24T10:45:36;6.97;;;4.05;;
64832;SDS011;51290;45.060;38.948;2023-04-24T10:48:04;11.05;;;6.57;;
64832;SDS011;51290;45.060;38.948;2023-04-24T10:50:45;8.52;;;5.10;;
64832;SDS011;51290;45.060;38.948;2023-04-24T10:53:13;7.78;;;5.07;;
64832;SDS011;51290;45.060;38.948;2023-04-24T10:55:56;11.90;;;6.10;;
64832;SDS011;51290;45.060;38.948;2023-04-24T10:58:26;11.10;;;6.00;;
64832;SDS011;51290;45.060;38.948;2023-04-24T11:01:06;8.25;;;5.35;;
64832;SDS011;51290;45.060;38.948;2023-04-24T11:03:33;9.80;;;5.63;;
64832;SDS011;51290;45.060;38.948;2023-04-24T11:06:04;8.52;;;4.78;;
64832;SDS011;51290;45.060;38.948;2023-04-24T11:08:43;9.90;;;5.30;;
64832;SDS011;51290;45.060;38.948;2023-04-24T11:11:14;8.90;;;5.68;;
64832;SDS011;51290;45.060;38.948;2023-04-24T11:18:51;8.25;;;5.25;;
64832;SDS011;51290;45.060;38.948;2023-04-24T11:21:25;15.15;;;7.47;;
64832;SDS011;51290;45.060;38.948;2023-04-24T11:23:56;11.95;;;6.00;;
64832;SDS011;51290;45.060;38.948;2023-04-24T11:26:23;9.48;;;5.88;;
64832;SDS011;51290;45.060;38.948;2023-04-24T11:28:55;11.85;;;6.28;;
64832;SDS011;51290;45.060;38.948;2023-04-24T11:31:37;10.35;;;6.32;;
64832;SDS011;51290;45.060;38.948;2023-04-24T11:34:08;11.52;;;5.95;;
64832;SDS011;51290;45.060;38.948;2023-04-24T11:36:36;17.58;;;6.90;;
64832;SDS011;51290;45.060;38.948;2023-04-24T11:39:02;14.60;;;6.55;;
64832;SDS011;51290;45.060;38.948;2023-04-24T11:41:28;11.75;;;7.13;;
64832;SDS011;51290;45.060;38.948;2023-04-24T11:43:55;11.82;;;6.93;;
64832;SDS011;51290;45.060;38.948;2023-04-24T11:46:22;14.05;;;6.30;;
64832;SDS011;51290;45.060;38.948;2023-04-24T11:48:48;12.63;;;6.35;;
64832;SDS011;51290;45.060;38.948;2023-04-24T11:51:14;10.30;;;5.90;;
64832;SDS011;51290;45.060;38.948;2023-04-24T11:53:40;9.38;;;6.28;;
64832;SDS011;51290;45.060;38.948;2023-04-24T11:56:06;12.13;;;6.85;;
64832;SDS011;51290;45.060;38.948;2023-04-24T11:58:35;10.43;;;6.68;;
64832;SDS011;51290;45.060;38.948;2023-04-24T12:01:01;10.13;;;6.10;;
64832;SDS011;51290;45.060;38.948;2023-04-24T12:03:28;11.57;;;5.68;;
64832;SDS011;51290;45.060;38.948;2023-04-24T12:06:14;11.38;;;6.47;;
64832;SDS011;51290;45.060;38.948;2023-04-24T12:11:07;11.05;;;5.90;;
64832;SDS011;51290;45.060;38.948;2023-04-24T12:13:33;10.90;;;6.18;;
64832;SDS011;51290;45.060;38.948;2023-04-24T12:16:04;11.80;;;6.63;;
64832;SDS011;51290;45.060;38.948;2023-04-24T12:18:30;16.63;;;6.55;;
64832;SDS011;51290;45.060;38.948;2023-04-24T12:21:14;10.65;;;5.85;;
64832;SDS011;51290;45.060;38.948;2023-04-24T12:23:47;15.80;;;7.05;;
64832;SDS011;51290;45.060;38.948;2023-04-24T12:26:17;11.40;;;6.53;;
64832;SDS011;51290;45.060;38.948;2023-04-24T12:28:45;14.82;;;7.72;;
64832;SDS011;51290;45.060;38.948;2023-04-24T12:31:13;11.68;;;6.03;;
64832;SDS011;51290;45.060;38.948;2023-04-24T12:33:39;12.00;;;6.22;;
64832;SDS011;51290;45.060;38.948;2023-04-24T12:36:06;10.45;;;5.88;;
64832;SDS011;51290;45.060;38.948;2023-04-24T12:38:35;9.98;;;6.43;;
64832;SDS011;51290;45.060;38.948;2023-04-24T12:41:06;11.20;;;6.65;;
64832;SDS011;51290;45.060;38.948;2023-04-24T12:43:37;11.75;;;6.25;;
64832;SDS011;51290;45.060;38.948;2023-04-24T12:46:03;12.18;;;6.47;;
64832;SDS011;51290;45.060;38.948;2023-04-24T12:48:30;10.45;;;5.93;;
64832;SDS011;51290;45.060;38.948;2023-04-24T12:50:58;10.32;;;5.32;;
64832;SDS011;51290;45.060;38.948;2023-04-24T12:53:26;8.98;;;5.57;;
64832;SDS011;51290;45.060;38.948;2023-04-24T12:55:55;9.65;;;5.88;;
64832;SDS011;51290;45.060;38.948;2023-04-24T12:58:21;9.15;;;5.40;;
64832;SDS011;51290;45.060;38.948;2023-04-24T13:00:47;10.52;;;6.38;;
64832;SDS011;51290;45.060;38.948;2023-04-24T13:03:13;7.35;;;5.18;;
64832;SDS011;51290;45.060;38.948;2023-04-24T13:05:40;9.98;;;5.90;;
64832;SDS011;51290;45.060;38.948;2023-04-24T13:08:07;10.60;;;6.18;;
64832;SDS011;51290;45.060;38.948;2023-04-24T13:10:33;9.90;;;6.00;;
64832;SDS011;51290;45.060;38.948;2023-04-24T13:12:59;11.70;;;6.32;;
64832;SDS011;51290;45.060;38.948;2023-04-24T13:15:25;9.98;;;5.85;;
64832;SDS011;51290;45.060;38.948;2023-04-24T13:17:51;9.93;;;5.38;;
64832;SDS011;51290;45.060;38.948;2023-04-24T13:20:17;10.98;;;5.70;;
64832;SDS011;51290;45.060;38.948;2023-04-24T13:22:43;8.07;;;5.22;;
64832;SDS011;51290;45.060;38.948;2023-04-24T13:25:09;10.02;;;5.85;;
64832;SDS011;51290;45.060;38.948;2023-04-24T13:27:37;9.00;;;5.57;;
64832;SDS011;51290;45.060;38.948;2023-04-24T13:30:05;13.73;;;6.00;;
64832;SDS011;51290;45.060;38.948;2023-04-24T13:32:32;9.75;;;5.80;;
64832;SDS011;51290;45.060;38.948;2023-04-24T13:34:58;14.77;;;5.68;;
64832;SDS011;51290;45.060;38.948;2023-04-24T13:37:24;9.23;;;5.60;;
64832;SDS011;51290;45.060;38.948;2023-04-24T13:39:51;9.32;;;5.97;;
64832;SDS011;51290;45.060;38.948;2023-04-24T13:42:17;10.32;;;5.40;;
64832;SDS011;51290;45.060;38.948;2023-04-24T13:44:44;9.23;;;5.40;;
64832;SDS011;51290;45.060;38.948;2023-04-24T13:47:10;8.43;;;5.65;;
64832;SDS011;51290;45.060;38.948;2023-04-24T13:49:36;9.20;;;5.22;;
64832;SDS011;51290;45.060;38.948;2023-04-24T13:52:01;8.43;;;5.40;;
64832;SDS011;51290;45.060;38.948;2023-04-24T13:54:28;12.50;;;6.22;;
64832;SDS011;51290;45.060;38.948;2023-04-24T13:56:55;10.15;;;4.75;;
64832;SDS011;51290;45.060;38.948;2023-04-24T13:59:23;11.73;;;6.43;;
64832;SDS011;51290;45.060;38.948;2023-04-24T14:01:49;11.07;;;6.93;;
64832;SDS011;51290;45.060;38.948;2023-04-24T14:04:15;11.60;;;6.47;;
64832;SDS011;51290;45.060;38.948;2023-04-24T14:06:41;11.15;;;6.78;;
64832;SDS011;51290;45.060;38.948;2023-04-24T14:09:07;10.05;;;5.32;;
64832;SDS011;51290;45.060;38.948;2023-04-24T14:11:33;11.20;;;5.65;;
64832;SDS011;51290;45.060;38.948;2023-04-24T14:13:59;12.70;;;6.55;;
64832;SDS011;51290;45.060;38.948;2023-04-24T14:16:25;13.13;;;6.03;;
64832;SDS011;51290;45.060;38.948;2023-04-24T14:18:51;11.48;;;6.22;;
64832;SDS011;51290;45.060;38.948;2023-04-24T14:21:17;8.00;;;5.75;;
64832;SDS011;51290;45.060;38.948;2023-04-24T14:23:43;9.43;;;5.53;;
64832;SDS011;51290;45.060;38.948;2023-04-24T14:26:09;12.23;;;6.50;;
64832;SDS011;51290;45.060;38.948;2023-04-24T14:28:35;13.38;;;6.22;;
64832;SDS011;51290;45.060;38.948;2023-04-24T14:31:01;10.38;;;6.72;;
64832;SDS011;51290;45.060;38.948;2023-04-24T14:33:27;10.98;;;6.68;;
64832;SDS011;51290;45.060;38.948;2023-04-24T14:35:53;10.85;;;7.32;;
64832;SDS011;51290;45.060;38.948;2023-04-24T14:38:19;15.43;;;7.50;;
64832;SDS011;51290;45.060;38.948;2023-04-24T14:40:46;9.60;;;6.47;;
64832;SDS011;51290;45.060;38.948;2023-04-24T14:43:12;11.48;;;6.70;;
64832;SDS011;51290;45.060;38.948;2023-04-24T14:45:38;10.15;;;6.60;;
64832;SDS011;51290;45.060;38.948;2023-04-24T14:48:06;11.18;;;6.47;;